Time,TemperatureF,DewpointF,PressureIn,WindDirection,WindDirectionDegrees,WindSpeedMPH,WindSpeedGustMPH,Humidity,HourlyPrecipIn,Conditions,Clouds,dailyrainin,SoftwareType,DateUTC
2013-12-17 00:22:00,10.0,5.0,29.71,WSW,248,6.0,-999.0,80,-99.99,,,-99.99,,2013-12-17 05:22:00,
2013-12-17 00:53:00,9.0,4.0,29.70,WSW,246,4.0,-999.0,80,-99.99,,,-99.99,,2013-12-17 05:53:00,
2013-12-17 01:22:00,9.0,4.0,29.69,WSW,257,5.0,-999.0,80,-99.99,,,-99.99,,2013-12-17 06:22:00,
2013-12-17 01:42:00,9.0,4.0,29.70,WSW,249,6.0,-999.0,80,-99.99,,,-99.99,,2013-12-17 06:42:00,
2013-12-17 01:52:00,9.0,4.0,29.70,SW,233,6.0,-999.0,80,-99.99,,,-99.99,,2013-12-17 06:52:00,
2013-12-17 02:21:00,7.0,2.0,29.68,SW,230,4.0,-999.0,79,-99.99,,,-99.99,,2013-12-17 07:21:00,
2013-12-17 02:42:00,7.0,2.0,29.67,SW,229,5.0,-999.0,80,-99.99,,,-99.99,,2013-12-17 07:42:00,
2013-12-17 02:52:00,7.0,2.0,29.67,WSW,250,4.0,-999.0,80,-99.99,,,-99.99,,2013-12-17 07:52:00,
2013-12-17 03:21:00,7.0,2.0,29.67,SW,235,4.0,-999.0,80,-99.99,,,-99.99,,2013-12-17 08:21:00,
2013-12-17 03:52:00,7.0,2.0,29.67,WSW,254,6.0,-999.0,81,-99.99,,,-99.99,,2013-12-17 08:52:00,
2013-12-17 04:22:00,7.0,2.0,29.66,WSW,254,4.0,-999.0,81,-99.99,,,-99.99,,2013-12-17 09:22:00,
2013-12-17 04:53:00,7.0,2.0,29.66,WSW,245,4.0,-999.0,81,-99.99,,,-99.99,,2013-12-17 09:53:00,
2013-12-17 05:23:00,6.0,2.0,29.66,West,265,4.0,-999.0,82,-99.99,,,-99.99,,2013-12-17 10:23:00,
2013-12-17 05:43:00,6.0,2.0,29.66,West,259,4.0,-999.0,82,-99.99,,,-99.99,,2013-12-17 10:43:00,
2013-12-17 05:53:00,6.0,2.0,29.66,West,265,4.0,-999.0,83,-99.99,,,-99.99,,2013-12-17 10:53:00,
2013-12-17 06:22:00,7.0,3.0,29.66,SW,222,4.0,-999.0,83,-99.99,,,-99.99,,2013-12-17 11:22:00,
2013-12-17 06:52:00,7.0,3.0,29.65,WSW,250,5.0,-999.0,83,-99.99,,,-99.99,,2013-12-17 11:52:00,
2013-12-17 07:22:00,7.0,3.0,29.65,West,261,5.0,-999.0,83,-99.99,,,-99.99,,2013-12-17 12:22:00,
2013-12-17 07:42:00,7.0,3.0,29.65,West,260,6.0,-999.0,84,-99.99,,,-99.99,,2013-12-17 12:42:00,
2013-12-17 07:52:00,7.0,3.0,29.65,West,265,7.0,-999.0,84,-99.99,,,-99.99,,2013-12-17 12:52:00,
2013-12-17 08:21:00,8.0,4.0,29.64,West,269,5.0,-999.0,85,-99.99,,,-99.99,,2013-12-17 13:21:00,
2013-12-17 08:42:00,8.0,4.0,29.64,WSW,243,4.0,-999.0,85,-99.99,,,-99.99,,2013-12-17 13:42:00,
2013-12-17 08:52:00,8.0,4.0,29.64,WSW,243,4.0,-999.0,85,-99.99,,,-99.99,,2013-12-17 13:52:00,
2013-12-17 09:21:00,9.0,5.0,29.64,West,275,4.0,-999.0,85,-99.99,,,-99.99,,2013-12-17 14:21:00,
2013-12-17 09:42:00,10.0,7.0,29.64,WNW,286,3.0,-999.0,86,-99.99,,,-99.99,,2013-12-17 14:42:00,
2013-12-17 09:52:00,11.0,8.0,29.64,West,277,4.0,-999.0,86,-99.99,,,-99.99,,2013-12-17 14:52:00,
2013-12-17 10:22:00,12.0,9.0,29.64,WSW,254,4.0,-999.0,86,-99.99,,,-99.99,,2013-12-17 15:22:00,
2013-12-17 10:44:00,12.0,9.0,29.65,West,259,5.0,-999.0,86,-99.99,,,-99.99,,2013-12-17 15:44:00,
2013-12-17 10:53:00,12.0,9.0,29.65,West,259,5.0,-999.0,86,-99.99,,,-99.99,,2013-12-17 15:53:00,
2013-12-17 11:23:00,12.0,9.0,29.65,West,263,5.0,-999.0,86,-99.99,,,-99.99,,2013-12-17 16:23:00,
2013-12-17 11:43:00,13.0,10.0,29.65,SW,229,5.0,-999.0,86,-99.99,,,-99.99,,2013-12-17 16:43:00,
2013-12-17 11:52:00,14.0,11.0,29.65,West,259,5.0,-999.0,86,-99.99,,,-99.99,,2013-12-17 16:52:00,
2013-12-17 12:23:00,15.0,12.0,29.66,WSW,254,5.0,-999.0,87,-99.99,,,-99.99,,2013-12-17 17:23:00,
2013-12-17 12:42:00,15.0,12.0,29.66,West,276,6.0,-999.0,87,-99.99,,,-99.99,,2013-12-17 17:42:00,
2013-12-17 12:53:00,17.0,14.0,29.65,West,269,6.0,-999.0,87,-99.99,,,-99.99,,2013-12-17 17:53:00,
2013-12-17 13:21:00,19.0,16.0,29.64,WSW,246,8.0,-999.0,86,-99.99,,,-99.99,,2013-12-17 18:21:00,
2013-12-17 13:42:00,20.0,16.0,29.64,West,262,7.0,-999.0,86,-99.99,,,-99.99,,2013-12-17 18:42:00,
2013-12-17 13:52:00,20.0,16.0,29.64,West,262,7.0,-999.0,86,-99.99,,,-99.99,,2013-12-17 18:52:00,
2013-12-17 14:22:00,22.0,18.0,29.63,WNW,287,8.0,-999.0,83,-99.99,,,-99.99,,2013-12-17 19:22:00,
2013-12-17 14:52:00,23.0,18.0,29.63,WNW,289,9.0,-999.0,82,-99.99,,,-99.99,,2013-12-17 19:52:00,
2013-12-17 15:22:00,24.0,20.0,29.65,WNW,288,10.0,-999.0,83,-99.99,,,-99.99,,2013-12-17 20:22:00,
2013-12-17 15:31:00,24.0,20.0,29.65,WNW,288,10.0,-999.0,83,-99.99,,,-99.99,,2013-12-17 20:31:00,
2013-12-17 15:42:00,24.0,20.0,29.65,WNW,288,10.0,-999.0,83,-99.99,,,-99.99,,2013-12-17 20:42:00,
2013-12-17 15:52:00,23.0,19.0,29.65,NNW,330,10.0,-999.0,83,-99.99,,,-99.99,,2013-12-17 20:52:00,
2013-12-17 16:22:00,23.0,19.0,29.65,WNW,291,8.0,-999.0,83,-99.99,,,-99.99,,2013-12-17 21:22:00,
2013-12-17 16:53:00,23.0,19.0,29.67,West,273,9.0,-999.0,83,-99.99,,,-99.99,,2013-12-17 21:53:00,
2013-12-17 17:23:00,22.0,18.0,29.68,WNW,284,6.0,-999.0,84,-99.99,,,-99.99,,2013-12-17 22:23:00,
2013-12-17 17:53:00,21.0,17.0,29.68,WNW,298,3.0,-999.0,85,-99.99,,,-99.99,,2013-12-17 22:53:00,
2013-12-17 18:22:00,21.0,17.0,29.70,WNW,302,5.0,-999.0,86,-99.99,,,-99.99,,2013-12-17 23:22:00,
2013-12-17 18:42:00,21.0,17.0,29.70,WNW,289,5.0,-999.0,86,-99.99,,,-99.99,,2013-12-17 23:42:00,
2013-12-17 18:53:00,21.0,17.0,29.70,WNW,289,5.0,-999.0,86,-99.99,,,-99.99,,2013-12-17 23:53:00,
2013-12-17 19:52:00,18.0,14.0,29.75,NW,308,8.0,-999.0,85,-99.99,,,-99.99,,2013-12-18 00:52:00,
2013-12-17 20:22:00,17.0,13.0,29.77,NW,313,9.0,-999.0,84,-99.99,,,-99.99,,2013-12-18 01:22:00,
2013-12-17 20:52:00,17.0,13.0,29.77,NW,323,5.0,-999.0,85,-99.99,,,-99.99,,2013-12-18 01:52:00,
2013-12-17 21:21:00,15.0,11.0,29.79,West,271,10.0,-999.0,83,-99.99,,,-99.99,,2013-12-18 02:21:00,
2013-12-17 21:52:00,15.0,11.0,29.80,WNW,294,10.0,-999.0,83,-99.99,,,-99.99,,2013-12-18 02:52:00,
2013-12-17 22:11:00,14.0,10.0,29.80,WNW,300,6.0,-999.0,83,-99.99,,,-99.99,,2013-12-18 03:11:00,
2013-12-17 22:22:00,14.0,10.0,29.80,WNW,300,6.0,-999.0,83,-99.99,,,-99.99,,2013-12-18 03:22:00,
2013-12-17 22:33:00,14.0,10.0,29.80,WNW,300,6.0,-999.0,83,-99.99,,,-99.99,,2013-12-18 03:33:00,
2013-12-17 22:43:00,14.0,10.0,29.80,WNW,300,6.0,-999.0,83,-99.99,,,-99.99,,2013-12-18 03:43:00,